createdAt,value
2024-01-18T04:21:20.406Z,544.00
2024-01-18T04:22:20.374Z,546.00
2024-01-18T04:23:20.380Z,545.00
2024-01-18T04:24:20.432Z,545.00
2024-01-18T04:25:20.374Z,542.00
2024-01-18T04:26:20.376Z,542.00
2024-01-18T04:27:20.429Z,542.00
2024-01-18T04:28:20.396Z,544.00
2024-01-18T04:29:20.404Z,542.00
2024-01-18T04:30:20.429Z,541.00
2024-01-18T04:31:27.599Z,541.00
2024-01-18T04:32:27.633Z,542.00
2024-01-18T04:33:27.624Z,542.00
2024-01-18T04:34:27.636Z,542.00
2024-01-18T04:35:27.576Z,539.00
2024-01-18T04:36:27.651Z,537.00
2024-01-18T04:37:27.597Z,536.00
2024-01-18T04:38:27.571Z,535.00
2024-01-18T04:39:27.650Z,537.00
2024-01-18T04:40:27.597Z,535.00
2024-01-18T04:41:27.586Z,538.00
2024-01-18T04:42:27.603Z,537.00
2024-01-18T04:43:27.582Z,540.00
2024-01-18T04:44:27.596Z,541.00
2024-01-18T04:45:27.673Z,542.00
2024-01-18T04:46:27.626Z,544.00
2024-01-18T04:47:27.615Z,546.00
2024-01-18T04:48:27.616Z,548.00
2024-01-18T04:49:27.641Z,551.00
2024-01-18T04:50:27.598Z,550.00
2024-01-18T04:51:27.626Z,549.00
2024-01-18T04:52:27.599Z,551.00
2024-01-18T04:53:27.622Z,551.00
2024-01-18T04:54:27.672Z,549.00
2024-01-18T04:55:27.579Z,549.00
2024-01-18T04:56:27.600Z,550.00
2024-01-18T04:57:27.638Z,553.00
2024-01-18T04:58:27.631Z,551.00
2024-01-18T04:59:27.627Z,549.00
2024-01-18T05:00:27.633Z,550.00
2024-01-18T05:01:27.644Z,552.00
2024-01-18T05:02:27.642Z,552.00
2024-01-18T05:03:27.670Z,552.00
2024-01-18T05:04:27.731Z,554.00
2024-01-18T05:05:27.841Z,554.00
2024-01-18T05:06:28.476Z,553.00
2024-01-18T05:07:27.884Z,550.00
2024-01-18T05:08:27.967Z,554.00
2024-01-18T05:09:27.968Z,557.00
2024-01-18T05:10:28.029Z,559.00
2024-01-18T05:11:28.105Z,557.00
2024-01-18T05:12:28.168Z,556.00
2024-01-18T05:13:28.198Z,555.00
2024-01-18T05:14:28.295Z,554.00
2024-01-18T05:15:28.382Z,550.00
2024-01-18T05:16:28.366Z,552.00
2024-01-18T05:17:28.480Z,554.00
2024-01-18T05:18:28.563Z,554.00
2024-01-18T05:19:28.598Z,552.00
2024-01-18T05:20:28.624Z,551.00
2024-01-18T05:21:28.711Z,550.00
2024-01-18T05:22:28.721Z,550.00
2024-01-18T05:23:28.803Z,547.00
2024-01-18T05:24:28.893Z,545.00
2024-01-18T05:25:28.903Z,544.00
2024-01-18T05:26:28.977Z,545.00
2024-01-18T05:27:29.105Z,544.00
2024-01-18T05:28:29.083Z,543.00
2024-01-18T05:29:29.151Z,545.00
2024-01-18T05:30:29.256Z,544.00
2024-01-18T05:31:29.251Z,543.00
2024-01-18T05:32:29.355Z,544.00
2024-01-18T05:33:29.553Z,547.00
2024-01-18T05:34:29.529Z,546.00
2024-01-18T05:35:29.509Z,543.00
2024-01-18T05:36:29.612Z,540.00
2024-01-18T05:37:29.602Z,540.00
2024-01-18T05:38:31.639Z,544.00
2024-01-18T05:39:29.716Z,542.00
2024-01-18T05:40:29.657Z,541.00
2024-01-18T05:41:29.703Z,540.00
2024-01-18T05:42:29.726Z,540.00
2024-01-18T05:43:29.673Z,541.00
2024-01-18T05:44:29.682Z,543.00
2024-01-18T05:45:29.678Z,545.00
2024-01-18T05:46:29.681Z,545.00
2024-01-18T05:47:29.695Z,546.00
2024-01-18T05:48:29.707Z,547.00
2024-01-18T05:49:29.729Z,547.00
2024-01-18T05:50:29.687Z,548.00
2024-01-18T05:51:29.701Z,547.00
2024-01-18T05:52:29.692Z,548.00
2024-01-18T05:53:29.682Z,548.00
2024-01-18T05:54:29.722Z,547.00
2024-01-18T05:55:29.673Z,547.00
2024-01-18T05:56:29.704Z,549.00
2024-01-18T05:57:29.743Z,549.00
2024-01-18T05:58:29.681Z,551.00
2024-01-18T05:59:29.700Z,548.00
2024-01-18T06:00:29.784Z,544.00
2024-01-18T06:01:29.701Z,543.00
2024-01-18T06:02:29.721Z,543.00
2024-01-18T06:03:29.733Z,540.00
2024-01-18T06:04:29.765Z,539.00
2024-01-18T06:05:29.667Z,536.00
2024-01-18T06:06:29.751Z,538.00
2024-01-18T06:07:29.739Z,538.00
2024-01-18T06:08:29.727Z,538.00
2024-01-18T06:09:29.802Z,538.00
2024-01-18T06:10:29.827Z,540.00
2024-01-18T06:11:29.838Z,540.00
2024-01-18T06:12:30.012Z,541.00
2024-01-18T06:13:29.966Z,542.00
2024-01-18T06:14:30.027Z,543.00
2024-01-18T06:15:30.058Z,544.00
2024-01-18T06:16:30.089Z,544.00
2024-01-18T06:17:30.274Z,544.00
2024-01-18T06:18:30.377Z,541.00
2024-01-18T06:19:30.368Z,539.00
2024-01-18T06:20:30.283Z,539.00
2024-01-18T06:21:30.350Z,538.00
2024-01-18T06:22:30.372Z,538.00
2024-01-18T06:23:30.433Z,538.00
2024-01-18T06:24:30.659Z,538.00
2024-01-18T06:25:30.492Z,539.00
2024-01-18T06:26:30.535Z,538.00
2024-01-18T06:27:30.662Z,537.00
2024-01-18T06:28:30.621Z,537.00
2024-01-18T06:29:30.659Z,538.00
2024-01-18T06:30:30.724Z,537.00
2024-01-18T06:31:30.764Z,539.00
2024-01-18T06:32:30.803Z,541.00
2024-01-18T06:33:31.008Z,539.00
2024-01-18T06:34:30.920Z,538.00
2024-01-18T06:35:30.934Z,536.00
2024-01-18T06:36:31.109Z,538.00
2024-01-18T06:37:31.039Z,542.00
2024-01-18T06:38:31.079Z,576.00
2024-01-18T06:39:31.198Z,576.00
2024-01-18T06:40:31.194Z,629.00
2024-01-18T06:41:31.258Z,624.00
2024-01-18T06:42:31.314Z,628.00
2024-01-18T06:43:31.298Z,673.00
2024-01-18T06:44:31.358Z,679.00
2024-01-18T06:45:31.462Z,688.00
2024-01-18T06:46:31.496Z,742.00
2024-01-18T06:47:31.480Z,739.00
2024-01-18T06:48:31.556Z,777.00
2024-01-18T06:49:31.624Z,862.00
2024-01-18T06:50:31.584Z,851.00
2024-01-18T06:51:31.694Z,850.00
2024-01-18T06:52:31.633Z,851.00
2024-01-18T06:53:31.798Z,871.00
2024-01-18T06:54:31.773Z,880.00
2024-01-18T06:55:31.756Z,974.00
2024-01-18T06:56:31.797Z,987.00
2024-01-18T06:57:31.818Z,992.00
2024-01-18T06:58:31.862Z,1010.00
2024-01-18T06:59:31.829Z,1015.00
2024-01-18T07:00:32.119Z,1021.00
2024-01-18T07:01:31.945Z,1028.00
2024-01-18T07:02:31.919Z,1044.00
2024-01-18T07:03:31.942Z,1092.00
2024-01-18T07:04:31.984Z,1080.00
2024-01-18T07:05:31.962Z,1082.00
2024-01-18T07:06:32.028Z,1088.00
2024-01-18T07:07:31.992Z,1087.00
2024-01-18T07:08:32.019Z,1091.00
2024-01-18T07:09:32.049Z,1101.00
2024-01-18T07:10:32.005Z,1111.00
2024-01-18T07:11:32.015Z,1123.00
2024-01-18T07:12:32.057Z,1132.00
2024-01-18T07:13:32.028Z,1134.00
2024-01-18T07:14:34.375Z,1139.00
2024-01-18T07:15:32.124Z,1141.00
2024-01-18T07:16:32.060Z,1138.00
2024-01-18T07:17:32.239Z,1140.00
2024-01-18T07:18:32.083Z,1148.00
2024-01-18T07:19:32.144Z,1149.00
2024-01-18T07:20:32.083Z,1151.00
2024-01-18T07:21:32.110Z,1152.00
2024-01-18T07:22:32.078Z,1149.00
2024-01-18T07:23:32.067Z,1148.00
2024-01-18T07:24:32.205Z,1143.00
2024-01-18T07:25:32.052Z,1143.00
2024-01-18T07:26:32.062Z,1152.00
2024-01-18T07:27:32.105Z,1151.00
2024-01-18T07:28:32.057Z,1153.00
2024-01-18T07:29:32.080Z,1154.00
2024-01-18T07:30:32.073Z,1155.00
2024-01-18T07:31:32.071Z,1157.00
2024-01-18T07:32:32.093Z,1150.00
2024-01-18T07:33:32.226Z,1154.00
2024-01-18T07:34:32.212Z,1159.00
2024-01-18T07:35:32.067Z,1158.00
2024-01-18T07:36:32.176Z,1154.00
2024-01-18T07:37:32.075Z,1160.00
2024-01-18T07:38:32.095Z,1163.00
2024-01-18T07:39:32.107Z,1164.00
2024-01-18T07:40:32.075Z,1162.00
2024-01-18T07:41:32.078Z,1165.00
2024-01-18T07:42:32.170Z,1163.00
2024-01-18T07:43:32.101Z,1155.00
2024-01-18T07:44:32.091Z,1162.00
2024-01-18T07:45:32.113Z,1170.00
2024-01-18T07:46:32.093Z,1133.00
2024-01-18T07:47:32.099Z,1112.00
2024-01-18T07:48:32.102Z,1166.00
2024-01-18T07:49:32.333Z,1152.00
2024-01-18T07:50:35.874Z,1143.00
2024-01-18T07:51:33.092Z,1129.00
2024-01-18T07:52:32.088Z,1123.00
2024-01-18T07:53:32.071Z,1131.00
2024-01-18T07:54:32.154Z,1128.00
2024-01-18T07:55:32.200Z,1132.00
2024-01-18T07:56:32.100Z,1131.00
2024-01-18T07:57:32.091Z,1136.00
2024-01-18T07:58:32.102Z,1137.00
2024-01-18T07:59:32.094Z,1136.00
2024-01-18T08:00:32.905Z,1132.00
2024-01-18T08:01:35.686Z,1127.00
2024-01-18T08:02:33.255Z,1124.00
2024-01-18T08:03:32.309Z,1122.00
2024-01-18T08:04:32.294Z,1121.00
2024-01-18T08:05:32.303Z,1114.00
2024-01-18T08:06:32.352Z,1113.00
2024-01-18T08:07:32.260Z,1120.00
2024-01-18T08:08:32.792Z,1125.00
2024-01-18T08:09:32.384Z,1122.00
2024-01-18T08:10:32.242Z,1112.00
2024-01-18T08:11:32.266Z,1105.00
2024-01-18T08:12:32.419Z,1096.00
2024-01-18T08:13:32.385Z,1091.00
2024-01-18T08:14:32.443Z,1086.00
2024-01-18T08:15:32.527Z,1075.00
2024-01-18T08:16:32.521Z,1065.00
2024-01-18T08:17:32.722Z,1068.00
2024-01-18T08:18:32.776Z,1066.00
2024-01-18T08:19:32.905Z,1071.00
2024-01-18T08:20:32.755Z,1070.00
2024-01-18T08:21:32.891Z,1075.00
2024-01-18T08:22:32.831Z,1070.00
2024-01-18T08:23:32.890Z,1065.00
2024-01-18T08:24:32.942Z,1064.00
2024-01-18T08:25:33.003Z,1068.00
2024-01-18T08:26:33.029Z,1073.00
2024-01-18T08:27:33.145Z,1071.00
2024-01-18T08:28:33.134Z,1071.00
2024-01-18T08:29:33.181Z,1070.00
2024-01-18T08:30:33.260Z,1068.00
2024-01-18T08:31:33.264Z,1065.00
2024-01-18T08:33:00.972Z,1071.00
2024-01-18T08:34:00.981Z,1061.00
2024-01-18T08:35:00.921Z,1055.00
2024-01-18T08:36:00.939Z,1051.00
2024-01-18T08:37:00.962Z,1052.00
2024-01-18T08:38:00.905Z,1054.00
2024-01-18T08:39:01.013Z,1054.00
2024-01-18T08:40:01.060Z,1063.00
2024-01-18T08:41:00.910Z,1067.00
2024-01-18T08:42:00.948Z,1066.00
2024-01-18T08:43:00.929Z,1060.00
2024-01-18T08:44:00.943Z,1064.00
2024-01-18T08:45:00.924Z,1074.00
2024-01-18T08:46:00.969Z,1196.00
2024-01-18T08:47:00.906Z,1175.00
2024-01-18T08:48:00.957Z,1183.00
2024-01-18T08:49:00.996Z,1178.00
2024-01-18T08:50:00.949Z,1210.00
2024-01-18T08:51:01.048Z,1212.00
2024-01-18T08:52:00.984Z,1252.00
2024-01-18T08:53:00.930Z,1258.00
2024-01-18T08:54:00.949Z,1270.00
2024-01-18T08:55:00.948Z,1271.00
2024-01-18T08:56:00.932Z,1274.00
2024-01-18T08:57:00.947Z,1279.00
2024-01-18T08:58:00.973Z,1288.00
2024-01-18T08:59:00.973Z,1324.00
2024-01-18T09:00:01.040Z,1304.00
2024-01-18T09:01:01.124Z,1291.00
2024-01-18T09:02:06.931Z,1294.00
2024-01-18T09:03:02.133Z,1291.00
2024-01-18T09:04:01.076Z,1279.00
2024-01-18T09:05:01.042Z,1274.00
2024-01-18T09:06:01.000Z,1273.00
2024-01-18T09:07:01.056Z,1263.00
2024-01-18T09:08:03.759Z,1270.00
2024-01-18T09:09:01.033Z,1283.00
2024-01-18T09:10:00.970Z,1287.00
2024-01-18T09:11:01.029Z,1284.00
2024-01-18T09:12:00.961Z,1291.00
2024-01-18T09:13:00.951Z,1291.00
2024-01-18T09:14:00.949Z,1288.00
2024-01-18T09:15:00.969Z,1288.00
2024-01-18T09:16:01.011Z,1287.00
2024-01-18T09:17:00.983Z,1290.00
2024-01-18T09:18:00.993Z,1284.00
2024-01-18T09:19:10.780Z,1286.00
2024-01-18T09:20:02.137Z,1288.00
2024-01-18T09:21:01.187Z,1293.00
2024-01-18T09:22:01.000Z,1305.00
2024-01-18T09:23:09.078Z,1303.00
2024-01-18T09:24:01.996Z,1297.00
2024-01-18T09:25:01.129Z,1297.00
2024-01-18T09:26:01.001Z,1290.00
2024-01-18T09:27:00.998Z,1288.00
2024-01-18T09:28:00.989Z,1287.00
2024-01-18T09:29:01.002Z,1296.00
2024-01-18T09:30:01.032Z,1307.00
2024-01-18T09:31:01.212Z,1318.00
2024-01-18T09:32:01.004Z,1316.00
2024-01-18T09:33:01.014Z,1316.00
2024-01-18T09:34:01.057Z,1320.00
2024-01-18T09:35:01.064Z,1334.00
2024-01-18T09:36:00.990Z,1263.00
2024-01-18T09:37:01.165Z,1251.00
2024-01-18T09:38:01.015Z,1269.00
2024-01-18T09:39:01.023Z,1311.00
2024-01-18T09:40:01.115Z,1307.00
2024-01-18T09:41:01.035Z,1301.00
2024-01-18T09:42:01.017Z,1309.00
2024-01-18T09:43:01.022Z,1335.00
2024-01-18T09:44:00.982Z,1341.00
2024-01-18T09:45:01.039Z,1339.00
2024-01-18T09:46:01.024Z,1333.00
2024-01-18T09:47:04.533Z,1453.00
2024-01-18T09:48:04.593Z,1452.00
2024-01-18T09:49:05.123Z,1360.00
2024-01-18T09:50:04.584Z,1337.00
2024-01-18T09:51:04.542Z,1385.00
2024-01-18T09:52:04.526Z,1463.00
2024-01-18T09:53:04.561Z,1464.00
2024-01-18T09:54:04.608Z,1454.00
2024-01-18T09:55:04.628Z,1448.00
2024-01-18T09:56:04.554Z,1442.00
2024-01-18T09:57:04.536Z,1442.00
2024-01-18T09:58:04.553Z,1447.00
2024-01-18T09:59:04.546Z,1443.00
2024-01-18T10:00:06.537Z,1412.00
2024-01-18T10:01:04.676Z,1399.00
2024-01-18T10:02:04.559Z,1399.00
2024-01-18T10:03:04.575Z,1402.00
2024-01-18T10:04:04.550Z,1394.00
2024-01-18T10:05:04.585Z,1390.00
2024-01-18T10:06:04.600Z,1380.00
2024-01-18T10:07:05.434Z,1364.00
2024-01-18T10:08:04.737Z,1349.00
2024-01-18T10:09:04.576Z,1337.00
2024-01-18T10:10:04.570Z,1329.00
2024-01-18T10:11:04.574Z,1323.00
2024-01-18T10:12:04.582Z,1312.00
2024-01-18T10:13:06.207Z,1303.00
2024-01-18T10:14:04.564Z,1285.00
2024-01-18T10:15:04.604Z,1266.00
2024-01-18T10:16:04.578Z,1260.00
2024-01-18T10:17:04.610Z,1253.00
2024-01-18T10:18:04.660Z,1246.00
2024-01-18T10:19:04.705Z,1239.00
2024-01-18T10:20:04.621Z,1236.00
2024-01-18T10:21:04.583Z,1234.00
2024-01-18T10:22:04.599Z,1229.00
2024-01-18T10:23:04.967Z,1226.00
2024-01-18T10:24:04.592Z,1220.00
2024-01-18T10:25:04.610Z,1211.00
2024-01-18T10:26:04.701Z,1202.00
2024-01-18T10:27:04.793Z,1200.00
2024-01-18T10:28:04.870Z,1195.00
2024-01-18T10:29:04.994Z,1199.00
2024-01-18T10:30:04.967Z,1190.00
2024-01-18T10:31:05.024Z,1183.00
2024-01-18T10:32:05.157Z,1180.00
2024-01-18T10:33:05.228Z,1178.00
2024-01-18T10:34:05.385Z,1173.00
2024-01-18T10:35:05.483Z,1165.00
2024-01-18T10:36:05.375Z,1154.00
2024-01-18T10:37:05.441Z,1150.00
2024-01-18T10:38:05.506Z,1150.00
2024-01-18T10:39:05.596Z,1149.00
2024-01-18T10:40:05.654Z,1145.00
2024-01-18T10:41:05.704Z,1144.00
2024-01-18T10:42:05.891Z,1134.00
2024-01-18T10:43:05.867Z,1134.00
2024-01-18T10:44:06.744Z,1149.00
2024-01-18T10:45:06.250Z,1143.00
2024-01-18T10:46:06.084Z,1278.00
2024-01-18T10:47:06.130Z,1288.00
2024-01-18T10:48:06.251Z,1279.00
2024-01-18T10:49:06.341Z,1271.00
2024-01-18T10:50:06.394Z,1262.00
2024-01-18T10:51:06.469Z,1269.00
2024-01-18T10:52:06.493Z,1267.00
2024-01-18T10:53:06.538Z,1277.00
2024-01-18T10:54:08.711Z,1282.00
2024-01-18T10:55:09.117Z,1284.00
2024-01-18T10:56:06.779Z,1283.00
2024-01-18T10:57:06.684Z,1282.00
2024-01-18T10:58:06.609Z,1295.00
2024-01-18T10:59:06.573Z,1300.00
2024-01-18T11:00:06.661Z,1303.00
2024-01-18T11:01:06.718Z,1301.00
2024-01-18T11:02:06.614Z,1280.00
2024-01-18T11:03:06.678Z,1281.00
2024-01-18T11:04:06.612Z,1283.00
2024-01-18T11:05:06.653Z,1288.00
2024-01-18T11:06:06.691Z,1296.00
2024-01-18T11:07:06.756Z,1303.00
2024-01-18T11:08:06.630Z,1308.00
2024-01-18T11:09:06.685Z,1312.00
2024-01-18T11:10:06.610Z,1320.00
2024-01-18T11:11:06.627Z,1326.00
2024-01-18T11:12:06.829Z,1328.00
2024-01-18T11:13:06.634Z,1337.00
2024-01-18T11:14:06.597Z,1346.00
2024-01-18T11:15:06.728Z,1353.00
2024-01-18T11:16:06.661Z,1352.00
2024-01-18T11:17:07.598Z,1360.00
2024-01-18T11:18:06.765Z,1356.00
2024-01-18T11:19:06.724Z,1349.00
2024-01-18T11:20:06.696Z,1342.00
2024-01-18T11:21:06.633Z,1343.00
2024-01-18T11:22:06.654Z,1341.00
2024-01-18T11:23:06.749Z,1339.00
2024-01-18T11:24:06.758Z,1344.00
2024-01-18T11:25:06.643Z,1349.00
2024-01-18T11:26:06.700Z,1361.00
2024-01-18T11:27:06.766Z,1407.00
2024-01-18T11:28:06.696Z,1414.00
2024-01-18T11:29:06.733Z,1416.00
2024-01-18T11:30:06.691Z,1425.00
2024-01-18T11:31:06.831Z,1406.00
2024-01-18T11:32:06.844Z,1368.00
2024-01-18T11:33:06.696Z,1317.00
2024-01-18T11:34:06.747Z,1302.00
2024-01-18T11:35:06.733Z,1254.00
2024-01-18T11:36:06.764Z,1243.00
2024-01-18T11:37:06.671Z,1230.00
2024-01-18T11:38:06.646Z,1217.00
2024-01-18T11:39:06.694Z,1203.00
2024-01-18T11:40:06.667Z,1159.00
2024-01-18T11:41:06.676Z,1132.00
2024-01-18T11:42:06.685Z,1118.00
2024-01-18T11:43:06.795Z,1106.00
2024-01-18T11:44:06.809Z,1093.00
2024-01-18T11:45:06.890Z,1076.00
2024-01-18T11:46:07.156Z,1043.00
2024-01-18T11:47:07.032Z,1016.00
2024-01-18T11:48:07.134Z,997.00
2024-01-18T11:49:07.303Z,984.00
2024-01-18T11:50:07.384Z,979.00
2024-01-18T11:51:07.267Z,974.00
2024-01-18T11:52:07.364Z,964.00
2024-01-18T11:53:07.414Z,952.00
2024-01-18T11:54:07.622Z,941.00
2024-01-18T11:55:07.568Z,930.00
2024-01-18T11:56:07.645Z,924.00
2024-01-18T11:57:07.735Z,917.00
2024-01-18T11:58:07.717Z,913.00
2024-01-18T11:59:07.753Z,909.00
2024-01-18T12:00:07.907Z,898.00
2024-01-18T12:01:07.841Z,889.00
2024-01-18T12:02:07.776Z,884.00
2024-01-18T12:03:07.886Z,865.00
2024-01-18T12:04:07.880Z,857.00
2024-01-18T12:05:07.874Z,850.00
2024-01-18T12:06:07.852Z,846.00
2024-01-18T12:07:07.968Z,840.00
2024-01-18T12:08:07.848Z,835.00
2024-01-18T12:09:07.996Z,832.00
2024-01-18T12:10:07.879Z,829.00
2024-01-18T12:11:07.864Z,826.00
2024-01-18T12:12:08.097Z,820.00
2024-01-18T12:13:07.881Z,816.00
2024-01-18T12:14:07.937Z,815.00
2024-01-18T12:15:08.125Z,817.00
2024-01-18T12:16:07.890Z,813.00
2024-01-18T12:17:07.899Z,808.00
2024-01-18T12:18:07.978Z,802.00
2024-01-18T12:19:07.965Z,794.00
2024-01-18T12:20:08.055Z,786.00
2024-01-18T12:21:07.934Z,778.00
2024-01-18T12:22:07.941Z,766.00
2024-01-18T12:23:07.935Z,764.00
2024-01-18T12:24:07.990Z,761.00
2024-01-18T12:25:08.002Z,759.00
2024-01-18T12:26:07.963Z,758.00
2024-01-18T12:27:08.005Z,757.00
2024-01-18T12:28:08.008Z,753.00
2024-01-18T12:29:08.028Z,748.00
2024-01-18T12:30:08.098Z,747.00
2024-01-18T12:31:08.064Z,743.00
2024-01-18T12:32:08.091Z,741.00
2024-01-18T12:33:08.151Z,738.00
2024-01-18T12:34:08.123Z,735.00
2024-01-18T12:35:08.124Z,739.00
2024-01-18T12:37:08.170Z,733.00
2024-01-18T12:38:08.158Z,729.00
2024-01-18T12:39:08.206Z,726.00
2024-01-18T12:40:08.194Z,724.00
2024-01-18T12:41:08.272Z,723.00
2024-01-18T12:42:08.220Z,722.00
2024-01-18T12:43:08.247Z,718.00
2024-01-18T12:44:08.251Z,716.00
2024-01-18T12:45:08.270Z,716.00
2024-01-18T12:46:08.369Z,714.00
2024-01-18T12:47:08.296Z,712.00
2024-01-18T12:48:08.504Z,711.00
2024-01-18T12:49:08.457Z,710.00
2024-01-18T12:50:08.448Z,707.00
2024-01-18T12:51:08.343Z,702.00
2024-01-18T12:52:08.392Z,696.00
2024-01-18T12:53:09.658Z,694.00
2024-01-18T12:54:08.414Z,690.00
2024-01-18T12:55:08.418Z,686.00
2024-01-18T12:56:08.433Z,683.00
2024-01-18T12:57:08.413Z,683.00
2024-01-18T12:58:08.465Z,682.00
2024-01-18T12:59:08.475Z,680.00
2024-01-18T13:00:08.507Z,677.00
2024-01-18T13:01:08.649Z,677.00
2024-01-18T13:02:08.529Z,677.00
2024-01-18T13:03:08.527Z,676.00
2024-01-18T13:04:08.594Z,675.00
2024-01-18T13:05:08.581Z,672.00
2024-01-18T13:06:08.648Z,669.00
2024-01-18T13:07:08.669Z,669.00
2024-01-18T13:08:08.731Z,667.00
2024-01-18T13:09:08.645Z,665.00
2024-01-18T13:10:08.639Z,662.00
2024-01-18T13:11:08.658Z,659.00
2024-01-18T13:12:08.708Z,660.00
2024-01-18T13:13:08.699Z,660.00
2024-01-18T13:14:08.718Z,657.00
2024-01-18T13:15:08.756Z,655.00
2024-01-18T13:16:08.810Z,654.00
2024-01-18T13:17:08.814Z,652.00
2024-01-18T13:18:08.873Z,649.00
2024-01-18T13:19:08.906Z,646.00
2024-01-18T13:20:08.991Z,643.00
2024-01-18T13:21:08.889Z,642.00
2024-01-18T13:22:08.934Z,642.00
2024-01-18T13:23:08.936Z,641.00
2024-01-18T13:24:08.961Z,641.00
2024-01-18T13:25:09.037Z,638.00
2024-01-18T13:26:09.017Z,634.00
2024-01-18T13:27:09.046Z,629.00
2024-01-18T13:28:09.075Z,628.00
2024-01-18T13:29:09.134Z,626.00
2024-01-18T13:30:09.144Z,627.00
2024-01-18T13:31:09.178Z,627.00
2024-01-18T13:32:09.212Z,624.00
2024-01-18T13:33:11.472Z,621.00
2024-01-18T13:34:09.253Z,622.00
2024-01-18T13:35:09.345Z,621.00
2024-01-18T13:36:09.250Z,621.00
2024-01-18T13:37:12.960Z,620.00
2024-01-18T13:38:11.942Z,619.00
2024-01-18T13:39:09.236Z,616.00
2024-01-18T13:40:09.258Z,615.00
2024-01-18T13:41:09.250Z,613.00
2024-01-18T13:42:09.243Z,612.00
2024-01-18T13:43:09.232Z,609.00
2024-01-18T13:44:09.265Z,608.00
2024-01-18T13:45:09.247Z,604.00
2024-01-18T13:46:09.304Z,606.00
2024-01-18T13:47:09.245Z,607.00
2024-01-18T13:48:09.330Z,606.00
2024-01-18T13:49:09.273Z,606.00
2024-01-18T13:50:09.351Z,606.00
2024-01-18T13:51:09.256Z,603.00
2024-01-18T13:52:09.297Z,600.00
2024-01-18T13:53:09.248Z,597.00
2024-01-18T13:54:09.261Z,595.00
2024-01-18T13:55:09.445Z,596.00
2024-01-18T13:56:10.448Z,598.00
2024-01-18T13:57:09.228Z,596.00
2024-01-18T13:58:09.276Z,597.00
2024-01-18T13:59:09.271Z,597.00
2024-01-18T14:00:09.250Z,593.00
2024-01-18T14:01:09.328Z,593.00
2024-01-18T14:02:09.256Z,590.00
2024-01-18T14:03:09.286Z,590.00
2024-01-18T14:04:09.260Z,590.00
2024-01-18T14:05:09.289Z,588.00
2024-01-18T14:06:09.330Z,586.00
2024-01-18T14:07:09.492Z,584.00
2024-01-18T14:08:10.114Z,584.00
2024-01-18T14:09:09.393Z,584.00
2024-01-18T14:10:09.505Z,583.00
2024-01-18T14:11:12.438Z,581.00
2024-01-18T14:12:09.493Z,582.00
2024-01-18T14:13:09.494Z,578.00
2024-01-18T14:14:09.484Z,582.00
2024-01-18T14:15:09.514Z,582.00
2024-01-18T14:16:10.731Z,579.00
2024-01-18T14:17:09.506Z,578.00
2024-01-18T14:18:09.561Z,577.00
2024-01-18T14:19:09.557Z,575.00
2024-01-18T14:20:09.643Z,576.00
2024-01-18T14:21:09.705Z,576.00
2024-01-18T14:22:09.644Z,579.00
2024-01-18T14:23:09.490Z,578.00
2024-01-18T14:24:10.166Z,579.00
2024-01-18T14:25:09.533Z,580.00
2024-01-18T14:26:09.504Z,579.00
2024-01-18T14:27:09.503Z,578.00
2024-01-18T14:28:09.623Z,577.00
2024-01-18T14:29:09.573Z,579.00
2024-01-18T14:30:09.597Z,578.00
2024-01-18T14:31:09.675Z,578.00
2024-01-18T14:32:09.657Z,578.00
2024-01-18T14:33:09.776Z,577.00
2024-01-18T14:34:09.815Z,574.00
2024-01-18T14:35:09.835Z,573.00
2024-01-18T14:36:09.812Z,572.00
2024-01-18T14:37:09.892Z,572.00
2024-01-18T14:38:09.908Z,572.00
2024-01-18T14:39:09.927Z,569.00
2024-01-18T14:40:10.005Z,569.00
2024-01-18T14:41:10.021Z,568.00
2024-01-18T14:42:10.053Z,567.00
2024-01-18T14:43:10.095Z,568.00
2024-01-18T14:44:10.134Z,568.00
2024-01-18T14:45:10.203Z,567.00
2024-01-18T14:46:10.267Z,567.00
2024-01-18T14:47:10.271Z,567.00
2024-01-18T14:48:10.376Z,568.00
2024-01-18T14:49:10.405Z,566.00
2024-01-18T14:50:10.442Z,565.00
2024-01-18T14:51:10.467Z,564.00
2024-01-18T14:52:10.469Z,565.00
2024-01-18T14:53:10.546Z,565.00
2024-01-18T14:54:10.531Z,564.00
2024-01-18T14:55:10.616Z,564.00
2024-01-18T14:56:10.635Z,566.00
2024-01-18T14:57:10.679Z,568.00
2024-01-18T14:58:10.760Z,566.00
2024-01-18T14:59:10.771Z,564.00
2024-01-18T15:00:10.802Z,563.00
2024-01-18T15:01:10.917Z,564.00
2024-01-18T15:02:10.879Z,565.00
2024-01-18T15:03:10.956Z,568.00
2024-01-18T15:04:11.094Z,566.00
2024-01-18T15:05:11.194Z,567.00
2024-01-18T15:06:11.038Z,564.00
2024-01-18T15:07:11.161Z,564.00
2024-01-18T15:08:11.248Z,562.00
2024-01-18T15:09:11.200Z,566.00
2024-01-18T15:10:11.307Z,566.00
2024-01-18T15:11:11.307Z,565.00
2024-01-18T15:12:11.317Z,564.00
2024-01-18T15:13:11.395Z,561.00
2024-01-18T15:14:11.457Z,560.00
2024-01-18T15:15:11.521Z,556.00
2024-01-18T15:16:13.013Z,556.00
2024-01-18T15:17:11.509Z,558.00
2024-01-18T15:18:11.538Z,559.00
2024-01-18T15:19:17.222Z,560.00
2024-01-18T15:20:12.680Z,561.00
2024-01-18T15:21:11.511Z,564.00
2024-01-18T15:22:11.538Z,566.00
2024-01-18T15:23:12.292Z,565.00
2024-01-18T15:24:11.543Z,567.00
2024-01-18T15:25:11.620Z,565.00
2024-01-18T15:26:11.517Z,562.00
2024-01-18T15:27:11.573Z,559.00
2024-01-18T15:28:11.554Z,559.00
2024-01-18T15:29:11.525Z,555.00
2024-01-18T15:30:11.527Z,555.00
2024-01-18T15:31:11.547Z,556.00
2024-01-18T15:32:11.641Z,559.00
2024-01-18T15:33:11.903Z,556.00
2024-01-18T15:34:11.768Z,556.00
2024-01-18T15:35:12.086Z,558.00
2024-01-18T15:36:11.788Z,557.00
2024-01-18T15:37:11.891Z,557.00
2024-01-18T15:38:11.908Z,557.00
2024-01-18T15:39:11.936Z,557.00
2024-01-18T15:40:12.016Z,558.00
2024-01-18T15:41:12.022Z,556.00
2024-01-18T15:42:12.077Z,556.00
2024-01-18T15:43:12.110Z,555.00
2024-01-18T15:44:12.179Z,552.00
2024-01-18T15:45:12.251Z,557.00
2024-01-18T15:46:12.262Z,555.00
2024-01-18T15:47:12.321Z,553.00
2024-01-18T15:48:12.372Z,555.00
2024-01-18T15:49:12.428Z,551.00
2024-01-18T15:50:12.512Z,547.00
2024-01-18T15:51:12.464Z,547.00
2024-01-18T15:52:12.539Z,548.00
2024-01-18T15:53:12.557Z,550.00
2024-01-18T15:54:12.647Z,552.00
2024-01-18T15:55:12.812Z,554.00
2024-01-18T15:56:12.707Z,552.00
2024-01-18T15:57:12.743Z,551.00
2024-01-18T15:58:12.777Z,553.00
2024-01-18T15:59:12.865Z,554.00
2024-01-18T16:00:12.919Z,554.00
2024-01-18T16:01:13.115Z,555.00
2024-01-18T16:02:12.969Z,554.00
2024-01-18T16:03:12.988Z,554.00
2024-01-18T16:04:13.094Z,551.00
2024-01-18T16:05:13.194Z,552.00
2024-01-18T16:06:13.194Z,548.00
2024-01-18T16:07:13.166Z,545.00
2024-01-18T16:08:13.232Z,544.00
2024-01-18T16:09:13.281Z,544.00
2024-01-18T16:10:13.392Z,544.00
2024-01-18T16:11:13.355Z,543.00
2024-01-18T16:12:13.508Z,542.00
2024-01-18T16:13:13.436Z,540.00
2024-01-18T16:14:13.485Z,540.00
2024-01-18T16:15:13.638Z,538.00
2024-01-18T16:16:13.619Z,538.00
2024-01-18T16:17:13.622Z,541.00
2024-01-18T16:18:13.680Z,542.00
2024-01-18T16:19:13.814Z,542.00
2024-01-18T16:20:13.791Z,543.00
2024-01-18T16:21:13.860Z,540.00
2024-01-18T16:22:13.880Z,540.00
2024-01-18T16:23:13.921Z,540.00
2024-01-18T16:24:13.975Z,541.00
2024-01-18T16:25:14.014Z,540.00
2024-01-18T16:26:14.069Z,539.00
2024-01-18T16:27:14.148Z,539.00
2024-01-18T16:28:14.203Z,536.00
2024-01-18T16:29:14.202Z,536.00
2024-01-18T16:30:20.207Z,535.00
2024-01-18T16:31:15.342Z,534.00
2024-01-18T16:32:14.269Z,535.00
2024-01-18T16:33:14.422Z,536.00
2024-01-18T16:34:14.338Z,535.00
2024-01-18T16:35:14.332Z,535.00
2024-01-18T16:36:14.338Z,534.00
2024-01-18T16:37:14.276Z,533.00
2024-01-18T16:38:14.304Z,532.00
2024-01-18T16:39:14.288Z,534.00
2024-01-18T16:40:14.291Z,533.00
2024-01-18T16:41:14.257Z,532.00
2024-01-18T16:42:14.380Z,532.00